sensor_id;sensor_type;location;lat;lon;timestamp;temperature;humidity
37984;DHT22;64625;50.882;4.376;2023-03-23T00:01:56;13.60;99.90
37984;DHT22;64625;50.882;4.376;2023-03-23T00:04:23;13.60;99.90
37984;DHT22;64625;50.882;4.376;2023-03-23T00:06:53;13.60;99.90
37984;DHT22;64625;50.882;4.376;2023-03-23T00:09:19;13.60;99.90
37984;DHT22;64625;50.882;4.376;2023-03-23T00:11:50;13.60;99.90
37984;DHT22;64625;50.882;4.376;2023-03-23T00:14:16;13.60;99.90
37984;DHT22;64625;50.882;4.376;2023-03-23T00:16:47;13.60;99.90
37984;DHT22;64625;50.882;4.376;2023-03-23T00:19:14;13.60;99.90
37984;DHT22;64625;50.882;4.376;2023-03-23T00:21:42;13.60;99.90
37984;DHT22;64625;50.882;4.376;2023-03-23T00:24:14;13.60;99.90
37984;DHT22;64625;50.882;4.376;2023-03-23T00:26:43;13.60;99.90
37984;DHT22;64625;50.882;4.376;2023-03-23T00:31:45;13.60;99.90
37984;DHT22;64625;50.882;4.376;2023-03-23T00:34:19;13.60;99.90
37984;DHT22;64625;50.882;4.376;2023-03-23T00:36:52;13.60;99.90
37984;DHT22;64625;50.882;4.376;2023-03-23T00:39:19;13.60;99.90
37984;DHT22;64625;50.882;4.376;2023-03-23T00:41:46;13.60;99.90
37984;DHT22;64625;50.882;4.376;2023-03-23T00:44:13;13.60;99.90
37984;DHT22;64625;50.882;4.376;2023-03-23T00:46:46;13.60;99.90
37984;DHT22;64625;50.882;4.376;2023-03-23T00:49:16;13.60;99.90
37984;DHT22;64625;50.882;4.376;2023-03-23T00:51:42;13.60;99.90
37984;DHT22;64625;50.882;4.376;2023-03-23T00:54:10;13.60;99.90
37984;DHT22;64625;50.882;4.376;2023-03-23T00:56:36;13.60;99.90
37984;DHT22;64625;50.882;4.376;2023-03-23T00:59:03;13.60;99.90
37984;DHT22;64625;50.882;4.376;2023-03-23T01:01:29;13.60;99.90
37984;DHT22;64625;50.882;4.376;2023-03-23T01:03:59;13.60;99.90
37984;DHT22;64625;50.882;4.376;2023-03-23T01:06:49;13.60;99.90
37984;DHT22;64625;50.882;4.376;2023-03-23T01:09:18;13.60;99.90
37984;DHT22;64625;50.882;4.376;2023-03-23T01:11:46;13.60;99.90
37984;DHT22;64625;50.882;4.376;2023-03-23T01:14:14;13.60;99.90
37984;DHT22;64625;50.882;4.376;2023-03-23T01:16:41;13.60;99.90
37984;DHT22;64625;50.882;4.376;2023-03-23T01:19:07;13.60;99.90
37984;DHT22;64625;50.882;4.376;2023-03-23T01:21:32;13.60;99.90
37984;DHT22;64625;50.882;4.376;2023-03-23T01:23:58;13.60;99.90
37984;DHT22;64625;50.882;4.376;2023-03-23T01:26:28;13.60;99.90
37984;DHT22;64625;50.882;4.376;2023-03-23T01:28:54;13.60;99.90
37984;DHT22;64625;50.882;4.376;2023-03-23T01:31:25;13.60;99.90
37984;DHT22;64625;50.882;4.376;2023-03-23T01:33:52;13.60;99.90
37984;DHT22;64625;50.882;4.376;2023-03-23T01:36:20;13.60;99.90
37984;DHT22;64625;50.882;4.376;2023-03-23T01:38:48;13.60;99.90
37984;DHT22;64625;50.882;4.376;2023-03-23T01:41:16;13.60;99.90
37984;DHT22;64625;50.882;4.376;2023-03-23T01:46:21;13.60;99.90
37984;DHT22;64625;50.882;4.376;2023-03-23T01:48:50;13.60;99.90
37984;DHT22;64625;50.882;4.376;2023-03-23T01:51:18;13.60;99.90
37984;DHT22;64625;50.882;4.376;2023-03-23T01:53:57;13.60;99.90
37984;DHT22;64625;50.882;4.376;2023-03-23T01:56:27;13.60;99.90
37984;DHT22;64625;50.882;4.376;2023-03-23T01:58:58;13.60;99.90
37984;DHT22;64625;50.882;4.376;2023-03-23T02:01:25;13.60;99.90
37984;DHT22;64625;50.882;4.376;2023-03-23T02:03:52;13.60;99.90
37984;DHT22;64625;50.882;4.376;2023-03-23T02:06:20;13.60;99.90
37984;DHT22;64625;50.882;4.376;2023-03-23T02:08:49;13.60;99.90
37984;DHT22;64625;50.882;4.376;2023-03-23T02:11:18;13.60;99.90
37984;DHT22;64625;50.882;4.376;2023-03-23T02:13:44;13.60;99.90
37984;DHT22;64625;50.882;4.376;2023-03-23T02:16:26;13.60;99.90
37984;DHT22;64625;50.882;4.376;2023-03-23T02:21:58;13.60;99.90
37984;DHT22;64625;50.882;4.376;2023-03-23T02:33:05;13.60;99.90
37984;DHT22;64625;50.882;4.376;2023-03-23T02:35:43;13.60;99.90
37984;DHT22;64625;50.882;4.376;2023-03-23T02:38:20;13.60;99.90
37984;DHT22;64625;50.882;4.376;2023-03-23T02:40:49;13.50;99.90
37984;DHT22;64625;50.882;4.376;2023-03-23T02:43:23;13.50;99.90
37984;DHT22;64625;50.882;4.376;2023-03-23T02:45:52;13.50;99.90
37984;DHT22;64625;50.882;4.376;2023-03-23T02:48:22;13.50;99.90
37984;DHT22;64625;50.882;4.376;2023-03-23T02:50:51;13.50;99.90
37984;DHT22;64625;50.882;4.376;2023-03-23T02:53:20;13.50;99.90
37984;DHT22;64625;50.882;4.376;2023-03-23T02:55:47;13.50;99.90
37984;DHT22;64625;50.882;4.376;2023-03-23T02:58:14;13.50;99.90
37984;DHT22;64625;50.882;4.376;2023-03-23T03:00:41;13.50;99.90
37984;DHT22;64625;50.882;4.376;2023-03-23T03:03:13;13.50;99.90
37984;DHT22;64625;50.882;4.376;2023-03-23T03:05:49;13.50;99.90
37984;DHT22;64625;50.882;4.376;2023-03-23T03:08:35;13.50;99.90
37984;DHT22;64625;50.882;4.376;2023-03-23T03:11:10;13.50;99.90
37984;DHT22;64625;50.882;4.376;2023-03-23T03:14:13;13.50;99.90
37984;DHT22;64625;50.882;4.376;2023-03-23T03:16:56;13.50;99.90
37984;DHT22;64625;50.882;4.376;2023-03-23T03:19:31;13.40;99.90
37984;DHT22;64625;50.882;4.376;2023-03-23T03:21:59;13.50;99.90
37984;DHT22;64625;50.882;4.376;2023-03-23T03:24:27;13.50;99.90
37984;DHT22;64625;50.882;4.376;2023-03-23T03:26:56;13.50;99.90
37984;DHT22;64625;50.882;4.376;2023-03-23T03:29:32;13.50;99.90
37984;DHT22;64625;50.882;4.376;2023-03-23T03:32:01;13.50;99.90
37984;DHT22;64625;50.882;4.376;2023-03-23T03:34:30;13.50;99.90
37984;DHT22;64625;50.882;4.376;2023-03-23T03:36:58;13.50;99.90
37984;DHT22;64625;50.882;4.376;2023-03-23T03:39:25;13.50;99.90
37984;DHT22;64625;50.882;4.376;2023-03-23T03:41:52;13.40;99.90
37984;DHT22;64625;50.882;4.376;2023-03-23T03:44:18;13.50;99.90
37984;DHT22;64625;50.882;4.376;2023-03-23T03:46:44;13.40;99.90
37984;DHT22;64625;50.882;4.376;2023-03-23T03:49:10;13.50;99.90
37984;DHT22;64625;50.882;4.376;2023-03-23T03:51:40;13.40;99.90
37984;DHT22;64625;50.882;4.376;2023-03-23T03:54:06;13.50;99.90
37984;DHT22;64625;50.882;4.376;2023-03-23T03:56:33;13.50;99.90
37984;DHT22;64625;50.882;4.376;2023-03-23T03:59:02;13.50;99.90
37984;DHT22;64625;50.882;4.376;2023-03-23T04:01:28;13.50;99.90
37984;DHT22;64625;50.882;4.376;2023-03-23T04:03:55;13.50;99.90
37984;DHT22;64625;50.882;4.376;2023-03-23T04:06:22;13.50;99.90
37984;DHT22;64625;50.882;4.376;2023-03-23T04:08:49;13.50;99.90
37984;DHT22;64625;50.882;4.376;2023-03-23T04:11:15;13.50;99.90
37984;DHT22;64625;50.882;4.376;2023-03-23T04:13:42;13.50;99.90
37984;DHT22;64625;50.882;4.376;2023-03-23T04:16:08;13.50;99.90
37984;DHT22;64625;50.882;4.376;2023-03-23T04:18:35;13.50;99.90
37984;DHT22;64625;50.882;4.376;2023-03-23T04:21:02;13.50;99.90
37984;DHT22;64625;50.882;4.376;2023-03-23T04:23:29;13.40;99.90
37984;DHT22;64625;50.882;4.376;2023-03-23T04:25:57;13.50;99.90
37984;DHT22;64625;50.882;4.376;2023-03-23T04:28:24;13.40;99.90
37984;DHT22;64625;50.882;4.376;2023-03-23T04:30:51;13.50;99.90
37984;DHT22;64625;50.882;4.376;2023-03-23T04:33:22;13.40;99.90
37984;DHT22;64625;50.882;4.376;2023-03-23T04:35:51;13.40;99.90
37984;DHT22;64625;50.882;4.376;2023-03-23T04:38:20;13.40;99.90
37984;DHT22;64625;50.882;4.376;2023-03-23T04:40:48;13.40;99.90
37984;DHT22;64625;50.882;4.376;2023-03-23T04:43:21;13.40;99.90
37984;DHT22;64625;50.882;4.376;2023-03-23T04:45:55;13.40;99.90
37984;DHT22;64625;50.882;4.376;2023-03-23T04:48:27;13.40;99.90
37984;DHT22;64625;50.882;4.376;2023-03-23T04:50:54;13.40;99.90
37984;DHT22;64625;50.882;4.376;2023-03-23T04:53:20;13.40;99.90
37984;DHT22;64625;50.882;4.376;2023-03-23T04:55:47;13.40;99.90
37984;DHT22;64625;50.882;4.376;2023-03-23T04:58:14;13.30;99.90
37984;DHT22;64625;50.882;4.376;2023-03-23T05:00:41;13.30;99.90
37984;DHT22;64625;50.882;4.376;2023-03-23T05:03:10;13.30;99.90
37984;DHT22;64625;50.882;4.376;2023-03-23T05:05:37;13.30;99.90
37984;DHT22;64625;50.882;4.376;2023-03-23T05:08:04;13.30;99.90
37984;DHT22;64625;50.882;4.376;2023-03-23T05:10:30;13.30;99.90
37984;DHT22;64625;50.882;4.376;2023-03-23T05:12:55;13.20;99.90
37984;DHT22;64625;50.882;4.376;2023-03-23T05:15:21;13.30;99.90
37984;DHT22;64625;50.882;4.376;2023-03-23T05:17:47;13.20;99.90
37984;DHT22;64625;50.882;4.376;2023-03-23T05:20:15;13.20;99.90
37984;DHT22;64625;50.882;4.376;2023-03-23T05:22:45;13.20;99.90
37984;DHT22;64625;50.882;4.376;2023-03-23T05:25:13;13.20;99.90
37984;DHT22;64625;50.882;4.376;2023-03-23T05:27:39;13.20;99.90
37984;DHT22;64625;50.882;4.376;2023-03-23T05:30:09;13.20;99.90
37984;DHT22;64625;50.882;4.376;2023-03-23T05:32:37;13.20;99.90
37984;DHT22;64625;50.882;4.376;2023-03-23T05:35:03;13.20;99.90
37984;DHT22;64625;50.882;4.376;2023-03-23T05:37:29;13.20;99.90
37984;DHT22;64625;50.882;4.376;2023-03-23T05:39:58;13.20;99.90
37984;DHT22;64625;50.882;4.376;2023-03-23T05:42:32;13.20;99.90
37984;DHT22;64625;50.882;4.376;2023-03-23T05:44:58;13.20;99.90
37984;DHT22;64625;50.882;4.376;2023-03-23T05:47:24;13.20;99.90
37984;DHT22;64625;50.882;4.376;2023-03-23T05:49:51;13.20;99.90
37984;DHT22;64625;50.882;4.376;2023-03-23T05:52:18;13.20;99.90
37984;DHT22;64625;50.882;4.376;2023-03-23T05:54:44;13.20;99.90
37984;DHT22;64625;50.882;4.376;2023-03-23T05:57:13;13.20;99.90
37984;DHT22;64625;50.882;4.376;2023-03-23T05:59:39;13.20;99.90
37984;DHT22;64625;50.882;4.376;2023-03-23T06:02:05;13.20;99.90
37984;DHT22;64625;50.882;4.376;2023-03-23T06:04:31;13.20;99.90
37984;DHT22;64625;50.882;4.376;2023-03-23T06:07:01;13.20;99.90
37984;DHT22;64625;50.882;4.376;2023-03-23T06:09:28;13.20;99.90
37984;DHT22;64625;50.882;4.376;2023-03-23T06:11:54;13.30;99.90
37984;DHT22;64625;50.882;4.376;2023-03-23T06:14:20;13.30;99.90
37984;DHT22;64625;50.882;4.376;2023-03-23T06:16:47;13.30;99.90
37984;DHT22;64625;50.882;4.376;2023-03-23T06:19:13;13.30;99.90
37984;DHT22;64625;50.882;4.376;2023-03-23T06:21:41;13.20;99.90
37984;DHT22;64625;50.882;4.376;2023-03-23T06:24:08;13.30;99.90
37984;DHT22;64625;50.882;4.376;2023-03-23T06:26:37;13.30;99.90
37984;DHT22;64625;50.882;4.376;2023-03-23T06:29:04;13.30;99.90
37984;DHT22;64625;50.882;4.376;2023-03-23T06:31:43;13.30;99.90
37984;DHT22;64625;50.882;4.376;2023-03-23T06:34:10;13.30;99.90
37984;DHT22;64625;50.882;4.376;2023-03-23T06:36:37;13.30;99.90
37984;DHT22;64625;50.882;4.376;2023-03-23T06:39:04;13.30;99.90
37984;DHT22;64625;50.882;4.376;2023-03-23T06:41:33;13.30;99.90
37984;DHT22;64625;50.882;4.376;2023-03-23T06:44:00;13.30;99.90
37984;DHT22;64625;50.882;4.376;2023-03-23T06:46:27;13.40;99.90
37984;DHT22;64625;50.882;4.376;2023-03-23T06:48:54;13.40;99.90
37984;DHT22;64625;50.882;4.376;2023-03-23T06:51:20;13.40;99.90
37984;DHT22;64625;50.882;4.376;2023-03-23T06:53:47;13.40;99.90
37984;DHT22;64625;50.882;4.376;2023-03-23T06:56:13;13.40;99.90
37984;DHT22;64625;50.882;4.376;2023-03-23T06:58:39;13.30;99.90
37984;DHT22;64625;50.882;4.376;2023-03-23T07:01:07;13.30;99.90
37984;DHT22;64625;50.882;4.376;2023-03-23T07:03:33;13.20;99.90
37984;DHT22;64625;50.882;4.376;2023-03-23T07:05:59;13.10;99.90
37984;DHT22;64625;50.882;4.376;2023-03-23T07:08:25;12.80;99.90
37984;DHT22;64625;50.882;4.376;2023-03-23T07:10:55;12.60;99.90
37984;DHT22;64625;50.882;4.376;2023-03-23T07:13:22;12.30;99.90
37984;DHT22;64625;50.882;4.376;2023-03-23T07:15:48;12.10;99.90
37984;DHT22;64625;50.882;4.376;2023-03-23T07:18:15;11.90;99.90
37984;DHT22;64625;50.882;4.376;2023-03-23T07:20:41;11.80;99.90
37984;DHT22;64625;50.882;4.376;2023-03-23T07:23:07;11.60;99.90
37984;DHT22;64625;50.882;4.376;2023-03-23T07:25:34;11.50;99.90
37984;DHT22;64625;50.882;4.376;2023-03-23T07:28:02;11.40;99.90
37984;DHT22;64625;50.882;4.376;2023-03-23T07:30:29;11.30;99.90
37984;DHT22;64625;50.882;4.376;2023-03-23T07:32:57;11.20;99.90
37984;DHT22;64625;50.882;4.376;2023-03-23T07:35:24;11.20;99.90
37984;DHT22;64625;50.882;4.376;2023-03-23T07:37:51;11.10;99.90
37984;DHT22;64625;50.882;4.376;2023-03-23T07:40:18;11.00;99.90
37984;DHT22;64625;50.882;4.376;2023-03-23T07:42:52;11.00;99.90
37984;DHT22;64625;50.882;4.376;2023-03-23T07:45:19;11.00;99.90
37984;DHT22;64625;50.882;4.376;2023-03-23T07:47:46;11.00;99.90
37984;DHT22;64625;50.882;4.376;2023-03-23T07:50:11;11.00;99.90
37984;DHT22;64625;50.882;4.376;2023-03-23T07:52:40;11.10;99.90
37984;DHT22;64625;50.882;4.376;2023-03-23T07:55:09;11.10;99.90
37984;DHT22;64625;50.882;4.376;2023-03-23T07:57:37;11.10;99.90
37984;DHT22;64625;50.882;4.376;2023-03-23T08:00:04;11.10;99.90
37984;DHT22;64625;50.882;4.376;2023-03-23T08:02:57;11.10;99.90
37984;DHT22;64625;50.882;4.376;2023-03-23T08:05:26;11.20;99.90
37984;DHT22;64625;50.882;4.376;2023-03-23T08:07:54;11.20;99.90
37984;DHT22;64625;50.882;4.376;2023-03-23T08:10:21;11.20;99.90
37984;DHT22;64625;50.882;4.376;2023-03-23T08:12:55;11.20;99.90
37984;DHT22;64625;50.882;4.376;2023-03-23T08:15:21;11.20;99.90
37984;DHT22;64625;50.882;4.376;2023-03-23T08:17:48;11.30;99.90
37984;DHT22;64625;50.882;4.376;2023-03-23T08:20:14;11.30;99.90
37984;DHT22;64625;50.882;4.376;2023-03-23T08:22:51;11.30;99.90
37984;DHT22;64625;50.882;4.376;2023-03-23T08:25:18;11.30;99.90
37984;DHT22;64625;50.882;4.376;2023-03-23T08:27:45;11.30;99.90
37984;DHT22;64625;50.882;4.376;2023-03-23T08:30:14;11.20;99.90
37984;DHT22;64625;50.882;4.376;2023-03-23T08:32:40;11.20;99.90
37984;DHT22;64625;50.882;4.376;2023-03-23T08:35:08;11.20;99.90
37984;DHT22;64625;50.882;4.376;2023-03-23T08:37:35;11.20;99.90
37984;DHT22;64625;50.882;4.376;2023-03-23T08:40:02;11.10;99.90
37984;DHT22;64625;50.882;4.376;2023-03-23T08:42:42;11.10;99.90
37984;DHT22;64625;50.882;4.376;2023-03-23T08:45:11;11.10;99.90
37984;DHT22;64625;50.882;4.376;2023-03-23T08:47:38;11.00;99.90
37984;DHT22;64625;50.882;4.376;2023-03-23T08:50:05;11.00;99.90
37984;DHT22;64625;50.882;4.376;2023-03-23T08:52:32;11.00;99.90
37984;DHT22;64625;50.882;4.376;2023-03-23T08:54:58;11.00;99.90
37984;DHT22;64625;50.882;4.376;2023-03-23T08:57:29;11.00;99.90
37984;DHT22;64625;50.882;4.376;2023-03-23T08:59:55;11.00;99.90
37984;DHT22;64625;50.882;4.376;2023-03-23T09:02:26;11.00;99.90
37984;DHT22;64625;50.882;4.376;2023-03-23T09:04:53;11.00;99.90
37984;DHT22;64625;50.882;4.376;2023-03-23T09:07:19;11.10;99.90
37984;DHT22;64625;50.882;4.376;2023-03-23T09:09:46;11.10;99.90
37984;DHT22;64625;50.882;4.376;2023-03-23T09:12:12;11.10;99.90
37984;DHT22;64625;50.882;4.376;2023-03-23T09:14:39;11.10;99.90
37984;DHT22;64625;50.882;4.376;2023-03-23T09:17:06;11.20;99.90
37984;DHT22;64625;50.882;4.376;2023-03-23T09:19:33;11.20;99.90
37984;DHT22;64625;50.882;4.376;2023-03-23T09:22:00;11.20;99.90
37984;DHT22;64625;50.882;4.376;2023-03-23T09:24:27;11.20;99.90
37984;DHT22;64625;50.882;4.376;2023-03-23T09:26:53;11.20;99.90
37984;DHT22;64625;50.882;4.376;2023-03-23T09:29:22;11.20;99.90
37984;DHT22;64625;50.882;4.376;2023-03-23T09:31:47;11.30;99.90
37984;DHT22;64625;50.882;4.376;2023-03-23T09:34:14;11.30;99.90
37984;DHT22;64625;50.882;4.376;2023-03-23T09:36:46;11.30;99.90
37984;DHT22;64625;50.882;4.376;2023-03-23T09:39:12;11.30;99.90
37984;DHT22;64625;50.882;4.376;2023-03-23T09:45:18;11.30;99.90
37984;DHT22;64625;50.882;4.376;2023-03-23T09:50:34;11.30;99.90
37984;DHT22;64625;50.882;4.376;2023-03-23T09:53:19;11.30;99.90
37984;DHT22;64625;50.882;4.376;2023-03-23T09:55:46;11.40;99.90
37984;DHT22;64625;50.882;4.376;2023-03-23T09:58:37;11.40;99.90
37984;DHT22;64625;50.882;4.376;2023-03-23T10:01:16;11.40;99.90
37984;DHT22;64625;50.882;4.376;2023-03-23T10:03:45;11.50;99.90
37984;DHT22;64625;50.882;4.376;2023-03-23T10:06:15;11.50;99.90
37984;DHT22;64625;50.882;4.376;2023-03-23T10:08:51;11.60;99.90
37984;DHT22;64625;50.882;4.376;2023-03-23T10:17:22;11.90;99.90
37984;DHT22;64625;50.882;4.376;2023-03-23T10:20:15;11.90;99.90
37984;DHT22;64625;50.882;4.376;2023-03-23T10:23:02;12.10;99.90
37984;DHT22;64625;50.882;4.376;2023-03-23T10:25:36;12.10;99.90
37984;DHT22;64625;50.882;4.376;2023-03-23T10:28:13;12.20;99.90
37984;DHT22;64625;50.882;4.376;2023-03-23T10:30:43;12.20;99.90
37984;DHT22;64625;50.882;4.376;2023-03-23T10:38:36;12.50;99.90
37984;DHT22;64625;50.882;4.376;2023-03-23T10:41:14;12.60;99.90
37984;DHT22;64625;50.882;4.376;2023-03-23T10:43:43;12.60;99.90
37984;DHT22;64625;50.882;4.376;2023-03-23T10:46:29;12.70;99.90
37984;DHT22;64625;50.882;4.376;2023-03-23T10:48:59;12.80;99.90
37984;DHT22;64625;50.882;4.376;2023-03-23T10:51:35;12.80;99.90
37984;DHT22;64625;50.882;4.376;2023-03-23T10:54:03;12.90;99.90
37984;DHT22;64625;50.882;4.376;2023-03-23T10:56:41;13.00;99.90
37984;DHT22;64625;50.882;4.376;2023-03-23T10:59:20;13.00;99.90
37984;DHT22;64625;50.882;4.376;2023-03-23T11:01:50;13.10;99.90
37984;DHT22;64625;50.882;4.376;2023-03-23T11:04:17;13.20;99.90
37984;DHT22;64625;50.882;4.376;2023-03-23T11:07:03;13.30;99.90
37984;DHT22;64625;50.882;4.376;2023-03-23T11:09:37;13.40;99.90
37984;DHT22;64625;50.882;4.376;2023-03-23T11:12:04;13.40;99.90
37984;DHT22;64625;50.882;4.376;2023-03-23T11:14:32;13.40;99.90
37984;DHT22;64625;50.882;4.376;2023-03-23T11:17:04;13.50;99.90
37984;DHT22;64625;50.882;4.376;2023-03-23T11:19:35;13.60;99.90
37984;DHT22;64625;50.882;4.376;2023-03-23T11:25:15;13.70;99.90
37984;DHT22;64625;50.882;4.376;2023-03-23T11:27:23;13.70;99.90
37984;DHT22;64625;50.882;4.376;2023-03-23T11:30:01;13.80;99.90
37984;DHT22;64625;50.882;4.376;2023-03-23T11:32:34;13.80;99.90
37984;DHT22;64625;50.882;4.376;2023-03-23T11:35:04;13.80;99.90
37984;DHT22;64625;50.882;4.376;2023-03-23T11:37:41;13.90;99.90
37984;DHT22;64625;50.882;4.376;2023-03-23T11:42:46;13.90;99.90
37984;DHT22;64625;50.882;4.376;2023-03-23T11:45:37;13.90;99.90
37984;DHT22;64625;50.882;4.376;2023-03-23T11:48:33;14.00;99.90
37984;DHT22;64625;50.882;4.376;2023-03-23T11:51:02;14.00;99.90
37984;DHT22;64625;50.882;4.376;2023-03-23T11:56:24;14.00;99.90
37984;DHT22;64625;50.882;4.376;2023-03-23T11:58:55;14.10;99.90
37984;DHT22;64625;50.882;4.376;2023-03-23T12:01:36;14.10;99.90
37984;DHT22;64625;50.882;4.376;2023-03-23T12:10:19;14.10;99.90
37984;DHT22;64625;50.882;4.376;2023-03-23T12:13:12;14.20;99.90
37984;DHT22;64625;50.882;4.376;2023-03-23T12:21:43;14.30;99.90
37984;DHT22;64625;50.882;4.376;2023-03-23T12:27:07;14.40;99.90
37984;DHT22;64625;50.882;4.376;2023-03-23T12:29:55;14.50;99.90
37984;DHT22;64625;50.882;4.376;2023-03-23T12:35:27;14.60;99.90
37984;DHT22;64625;50.882;4.376;2023-03-23T12:43:51;14.80;99.90
37984;DHT22;64625;50.882;4.376;2023-03-23T12:49:46;14.90;99.90
37984;DHT22;64625;50.882;4.376;2023-03-23T12:55:39;15.10;99.90
37984;DHT22;64625;50.882;4.376;2023-03-23T12:58:24;15.10;99.90
37984;DHT22;64625;50.882;4.376;2023-03-23T13:01:05;15.10;99.90
37984;DHT22;64625;50.882;4.376;2023-03-23T13:06:22;15.20;99.90
37984;DHT22;64625;50.882;4.376;2023-03-23T13:11:47;15.20;99.90
37984;DHT22;64625;50.882;4.376;2023-03-23T13:17:03;15.20;99.90
37984;DHT22;64625;50.882;4.376;2023-03-23T13:25:52;15.30;99.90
37984;DHT22;64625;50.882;4.376;2023-03-23T13:28:27;15.30;99.90
37984;DHT22;64625;50.882;4.376;2023-03-23T13:31:11;15.40;99.90
37984;DHT22;64625;50.882;4.376;2023-03-23T13:33:38;15.40;99.90
37984;DHT22;64625;50.882;4.376;2023-03-23T13:36:14;15.40;99.90
37984;DHT22;64625;50.882;4.376;2023-03-23T13:38:50;15.40;99.90
37984;DHT22;64625;50.882;4.376;2023-03-23T13:41:18;15.40;99.90
37984;DHT22;64625;50.882;4.376;2023-03-23T13:43:47;15.50;99.90
37984;DHT22;64625;50.882;4.376;2023-03-23T13:46:27;15.50;99.90
37984;DHT22;64625;50.882;4.376;2023-03-23T13:49:18;15.60;99.90
37984;DHT22;64625;50.882;4.376;2023-03-23T13:51:47;15.60;99.90
37984;DHT22;64625;50.882;4.376;2023-03-23T13:54:30;15.60;99.90
37984;DHT22;64625;50.882;4.376;2023-03-23T13:57:02;15.60;99.90
37984;DHT22;64625;50.882;4.376;2023-03-23T13:59:33;15.70;99.90
37984;DHT22;64625;50.882;4.376;2023-03-23T14:05:36;15.60;99.90
37984;DHT22;64625;50.882;4.376;2023-03-23T14:10:59;15.50;99.90
37984;DHT22;64625;50.882;4.376;2023-03-23T14:18:53;15.40;99.90
37984;DHT22;64625;50.882;4.376;2023-03-23T14:21:38;15.40;99.90
37984;DHT22;64625;50.882;4.376;2023-03-23T14:24:27;15.40;99.90
37984;DHT22;64625;50.882;4.376;2023-03-23T14:29:31;15.50;99.90
37984;DHT22;64625;50.882;4.376;2023-03-23T14:31:58;15.50;99.90
37984;DHT22;64625;50.882;4.376;2023-03-23T14:34:26;15.50;99.90
37984;DHT22;64625;50.882;4.376;2023-03-23T14:36:55;15.50;99.90
37984;DHT22;64625;50.882;4.376;2023-03-23T14:39:31;15.50;99.90
37984;DHT22;64625;50.882;4.376;2023-03-23T14:42:03;15.50;99.90
37984;DHT22;64625;50.882;4.376;2023-03-23T14:44:33;15.50;99.90
37984;DHT22;64625;50.882;4.376;2023-03-23T14:47:05;15.50;99.90
37984;DHT22;64625;50.882;4.376;2023-03-23T14:49:38;15.50;99.90
37984;DHT22;64625;50.882;4.376;2023-03-23T14:52:12;15.50;99.90
37984;DHT22;64625;50.882;4.376;2023-03-23T14:54:39;15.50;99.90
37984;DHT22;64625;50.882;4.376;2023-03-23T14:57:41;15.50;99.90
37984;DHT22;64625;50.882;4.376;2023-03-23T15:00:29;15.50;99.90
37984;DHT22;64625;50.882;4.376;2023-03-23T15:02:59;15.50;99.90
37984;DHT22;64625;50.882;4.376;2023-03-23T15:05:35;15.50;99.90
37984;DHT22;64625;50.882;4.376;2023-03-23T15:08:07;15.50;99.90
37984;DHT22;64625;50.882;4.376;2023-03-23T15:10:36;15.50;99.90
37984;DHT22;64625;50.882;4.376;2023-03-23T15:13:02;15.60;99.90
37984;DHT22;64625;50.882;4.376;2023-03-23T15:15:33;15.60;99.90
37984;DHT22;64625;50.882;4.376;2023-03-23T15:18:02;15.60;99.90
37984;DHT22;64625;50.882;4.376;2023-03-23T15:23:08;15.60;99.90
37984;DHT22;64625;50.882;4.376;2023-03-23T15:25:38;15.70;99.90
37984;DHT22;64625;50.882;4.376;2023-03-23T15:28:29;15.70;99.90
37984;DHT22;64625;50.882;4.376;2023-03-23T15:30:59;15.80;99.90
37984;DHT22;64625;50.882;4.376;2023-03-23T15:33:25;15.80;99.90
37984;DHT22;64625;50.882;4.376;2023-03-23T15:35:56;15.90;99.90
37984;DHT22;64625;50.882;4.376;2023-03-23T15:38:30;15.90;99.90
37984;DHT22;64625;50.882;4.376;2023-03-23T15:41:04;15.90;99.90
37984;DHT22;64625;50.882;4.376;2023-03-23T15:43:34;16.00;99.90
37984;DHT22;64625;50.882;4.376;2023-03-23T15:46:26;16.00;99.90
37984;DHT22;64625;50.882;4.376;2023-03-23T15:51:28;16.00;99.90
37984;DHT22;64625;50.882;4.376;2023-03-23T15:53:55;16.00;99.90
37984;DHT22;64625;50.882;4.376;2023-03-23T15:56:22;16.00;99.90
37984;DHT22;64625;50.882;4.376;2023-03-23T15:58:48;15.90;99.90
37984;DHT22;64625;50.882;4.376;2023-03-23T16:01:24;15.90;99.90
37984;DHT22;64625;50.882;4.376;2023-03-23T16:06:19;15.80;99.90
37984;DHT22;64625;50.882;4.376;2023-03-23T16:08:46;15.80;99.90
37984;DHT22;64625;50.882;4.376;2023-03-23T16:11:17;15.80;99.90
37984;DHT22;64625;50.882;4.376;2023-03-23T16:13:44;15.90;99.90
37984;DHT22;64625;50.882;4.376;2023-03-23T16:16:21;15.90;99.90
37984;DHT22;64625;50.882;4.376;2023-03-23T16:18:47;15.90;99.90
37984;DHT22;64625;50.882;4.376;2023-03-23T16:21:13;15.90;99.90
37984;DHT22;64625;50.882;4.376;2023-03-23T16:23:39;15.90;99.90
37984;DHT22;64625;50.882;4.376;2023-03-23T16:26:09;15.90;99.90
37984;DHT22;64625;50.882;4.376;2023-03-23T16:28:36;15.90;99.90
37984;DHT22;64625;50.882;4.376;2023-03-23T16:31:02;15.90;99.90
37984;DHT22;64625;50.882;4.376;2023-03-23T16:33:28;16.00;99.90
37984;DHT22;64625;50.882;4.376;2023-03-23T16:35:54;16.00;99.90
37984;DHT22;64625;50.882;4.376;2023-03-23T16:38:22;16.00;99.90
37984;DHT22;64625;50.882;4.376;2023-03-23T16:40:48;16.00;99.90
37984;DHT22;64625;50.882;4.376;2023-03-23T16:43:14;16.00;99.90
37984;DHT22;64625;50.882;4.376;2023-03-23T16:45:41;16.00;99.90
37984;DHT22;64625;50.882;4.376;2023-03-23T16:48:09;16.00;99.90
37984;DHT22;64625;50.882;4.376;2023-03-23T16:50:36;16.00;99.90
37984;DHT22;64625;50.882;4.376;2023-03-23T16:53:02;15.90;99.90
37984;DHT22;64625;50.882;4.376;2023-03-23T16:55:29;15.90;99.90
37984;DHT22;64625;50.882;4.376;2023-03-23T16:57:56;15.90;99.90
37984;DHT22;64625;50.882;4.376;2023-03-23T17:00:22;15.90;99.90
37984;DHT22;64625;50.882;4.376;2023-03-23T17:02:50;15.90;99.90
37984;DHT22;64625;50.882;4.376;2023-03-23T17:05:18;15.80;99.90
37984;DHT22;64625;50.882;4.376;2023-03-23T17:07:45;15.80;99.90
37984;DHT22;64625;50.882;4.376;2023-03-23T17:10:12;15.80;99.90
37984;DHT22;64625;50.882;4.376;2023-03-23T17:12:39;15.80;99.90
37984;DHT22;64625;50.882;4.376;2023-03-23T17:15:06;15.80;99.90
37984;DHT22;64625;50.882;4.376;2023-03-23T17:17:32;15.80;99.90
37984;DHT22;64625;50.882;4.376;2023-03-23T17:19:58;15.80;99.90
37984;DHT22;64625;50.882;4.376;2023-03-23T17:22:25;15.70;99.90
37984;DHT22;64625;50.882;4.376;2023-03-23T17:24:51;15.70;99.90
37984;DHT22;64625;50.882;4.376;2023-03-23T17:27:18;15.70;99.90
37984;DHT22;64625;50.882;4.376;2023-03-23T17:29:45;15.70;99.90
37984;DHT22;64625;50.882;4.376;2023-03-23T17:32:11;15.70;99.90
37984;DHT22;64625;50.882;4.376;2023-03-23T17:34:37;15.70;99.90
37984;DHT22;64625;50.882;4.376;2023-03-23T17:37:03;15.70;99.90
37984;DHT22;64625;50.882;4.376;2023-03-23T17:39:29;15.60;99.90